Time;durP1;ratioP1;P1;durP2;ratioP2;P2;SDS_P1;SDS_P2;PMS_P1;PMS_P2;Temp;Humidity;BMP_temperature;BMP_pressure;BME280_temperature;BME280_humidity;BME280_pressure;Samples;Min_cycle;Max_cycle;Signal;HPM_P1;HPM_P2
2022/11/17 00:00:32;;;;;;;0.60;0.60;;;9.10;99.90;;;;;;4966064;28;20056;-82
2022/11/17 00:02:58;;;;;;;0.60;0.60;;;9.20;99.90;;;;;;4961985;28;20106;-85
2022/11/17 00:05:23;;;;;;;0.60;0.60;;;9.20;99.90;;;;;;4950722;28;20660;-82
2022/11/17 00:07:49;;;;;;;0.60;0.60;;;9.20;99.90;;;;;;4975082;28;20412;-81
2022/11/17 00:10:16;;;;;;;0.60;0.60;;;9.30;99.90;;;;;;4959231;28;20044;-78
2022/11/17 00:15:27;;;;;;;0.60;0.60;;;9.20;99.90;;;;;;4977493;28;20048;-81
2022/11/17 00:23:23;;;;;;;0.60;0.60;;;9.30;99.90;;;;;;4984907;28;20314;-79
2022/11/17 00:25:49;;;;;;;0.60;0.60;;;9.30;99.90;;;;;;4981092;28;20050;-80
2022/11/17 00:28:14;;;;;;;0.60;0.60;;;9.30;99.90;;;;;;4925129;28;20055;-80
2022/11/17 00:36:09;;;;;;;0.60;0.60;;;9.30;99.90;;;;;;4954040;28;20052;-78
2022/11/17 00:38:35;;;;;;;0.60;0.60;;;9.30;99.90;;;;;;4986554;28;20141;-77
2022/11/17 00:41:01;;;;;;;0.60;0.60;;;9.30;99.90;;;;;;4946940;28;20355;-82
2022/11/17 00:43:27;;;;;;;0.60;0.60;;;9.30;99.90;;;;;;4945042;28;20048;-81
2022/11/17 00:45:52;;;;;;;0.60;0.60;;;9.30;99.90;;;;;;4965991;28;20850;-79
2022/11/17 00:48:18;;;;;;;0.60;0.60;;;9.20;99.90;;;;;;4981659;28;20635;-78
2022/11/17 00:50:44;;;;;;;0.60;0.60;;;9.20;99.90;;;;;;4979439;28;20058;-80
2022/11/17 00:53:09;;;;;;;0.60;0.60;;;9.30;99.90;;;;;;4981437;28;20548;-80
2022/11/17 00:55:35;;;;;;;0.60;0.60;;;9.30;99.90;;;;;;4945097;28;20395;-85
2022/11/17 00:58:01;;;;;;;0.60;0.60;;;9.30;99.90;;;;;;4931837;28;20154;-81
2022/11/17 01:00:27;;;;;;;0.60;0.60;;;9.30;99.90;;;;;;4963667;28;20131;-81
2022/11/17 01:02:53;;;;;;;0.60;0.60;;;9.30;99.90;;;;;;4959023;28;20254;-80
2022/11/17 01:05:19;;;;;;;0.60;0.60;;;9.30;99.90;;;;;;4977362;28;20094;-80
2022/11/17 01:07:45;;;;;;;0.60;0.60;;;9.30;99.90;;;;;;4979208;28;20958;-80
2022/11/17 01:10:12;;;;;;;0.60;0.60;;;9.20;99.90;;;;;;4963585;28;20055;-80
2022/11/17 01:12:38;;;;;;;0.60;0.60;;;9.30;99.90;;;;;;4973924;28;20067;-79
2022/11/17 01:15:04;;;;;;;0.60;0.60;;;9.30;99.90;;;;;;4977119;28;20044;-78
2022/11/17 01:17:30;;;;;;;0.57;0.57;;;9.30;99.90;;;;;;4971014;28;20157;-81
2022/11/17 01:19:56;;;;;;;0.60;0.60;;;9.30;99.90;;;;;;4967667;28;20056;-80
2022/11/17 01:22:22;;;;;;;0.52;0.52;;;9.30;99.90;;;;;;4947641;28;20056;-78
2022/11/17 01:24:47;;;;;;;0.60;0.60;;;9.30;99.90;;;;;;4984852;28;20044;-83
2022/11/17 01:27:13;;;;;;;0.60;0.60;;;9.30;99.90;;;;;;4962858;28;20855;-77
2022/11/17 01:29:39;;;;;;;0.60;0.60;;;9.30;99.90;;;;;;4957748;28;21229;-80
2022/11/17 01:32:05;;;;;;;0.60;0.60;;;9.30;99.90;;;;;;4960116;28;20079;-82
2022/11/17 01:34:31;;;;;;;0.60;0.60;;;9.30;99.90;;;;;;4941332;28;20048;-80
2022/11/17 01:39:41;;;;;;;0.60;0.60;;;9.30;99.90;;;;;;4963826;28;20169;-83
2022/11/17 01:42:33;;;;;;;0.60;0.60;;;9.40;99.90;;;;;;4959556;28;20106;-81
2022/11/17 01:45:00;;;;;;;0.60;0.60;;;9.30;99.90;;;;;;4940346;28;20059;-78
2022/11/17 01:47:51;;;;;;;0.60;0.60;;;9.40;99.90;;;;;;4981092;28;20626;-77
2022/11/17 01:50:39;;;;;;;0.60;0.60;;;9.30;99.90;;;;;;4979231;28;20217;-78
2022/11/17 01:53:12;;;;;;;0.60;0.60;;;9.40;99.90;;;;;;4959536;28;20583;-80
2022/11/17 01:55:55;;;;;;;0.60;0.60;;;9.30;99.90;;;;;;4976564;28;20057;-80
2022/11/17 01:58:27;;;;;;;0.60;0.60;;;9.30;99.90;;;;;;4978521;28;20419;-80
2022/11/17 02:00:54;;;;;;;0.60;0.60;;;9.30;99.90;;;;;;4978156;28;20377;-78
2022/11/17 02:03:21;;;;;;;0.60;0.60;;;9.30;99.90;;;;;;4981700;28;20071;-79
2022/11/17 02:06:09;;;;;;;0.60;0.60;;;9.30;99.90;;;;;;4982559;28;20064;-77
2022/11/17 02:08:38;;;;;;;0.60;0.60;;;9.30;99.90;;;;;;4964663;28;20414;-80
2022/11/17 02:11:10;;;;;;;0.60;0.60;;;9.30;99.90;;;;;;4976002;28;20537;-80
2022/11/17 02:13:37;;;;;;;0.60;0.60;;;9.30;99.90;;;;;;4978010;28;20052;-78
2022/11/17 02:16:03;;;;;;;0.60;0.60;;;9.30;99.90;;;;;;4961575;28;20430;-79
2022/11/17 02:18:29;;;;;;;0.50;0.50;;;9.20;99.90;;;;;;4956986;28;20056;-79
2022/11/17 02:21:13;;;;;;;0.60;0.60;;;9.20;99.90;;;;;;4976325;28;20940;-82
2022/11/17 02:23:57;;;;;;;0.60;0.60;;;9.20;99.90;;;;;;4975510;28;20044;-80
2022/11/17 02:26:38;;;;;;;0.60;0.60;;;9.20;99.90;;;;;;4959163;28;20654;-80
2022/11/17 02:29:03;;;;;;;0.55;0.55;;;9.20;99.90;;;;;;4957075;28;20056;-77
2022/11/17 02:31:54;;;;;;;0.60;0.60;;;9.20;99.90;;;;;;4974833;28;20045;-80
2022/11/17 02:34:37;;;;;;;0.60;0.60;;;9.10;99.90;;;;;;4975366;28;20055;-80
2022/11/17 02:37:30;;;;;;;0.60;0.60;;;9.10;99.90;;;;;;4976481;28;20246;-81
2022/11/17 02:40:15;;;;;;;0.60;0.60;;;9.10;99.90;;;;;;4977207;28;20052;-80
2022/11/17 02:45:47;;;;;;;0.60;0.60;;;9.10;99.90;;;;;;4982742;28;20594;-83
2022/11/17 02:48:26;;;;;;;0.60;0.60;;;9.10;99.90;;;;;;4942045;28;20064;-81
2022/11/17 02:50:53;;;;;;;0.60;0.60;;;9.10;99.90;;;;;;4957344;28;20493;-78
2022/11/17 02:53:21;;;;;;;0.60;0.60;;;9.20;99.90;;;;;;4952755;28;20057;-82
2022/11/17 02:55:50;;;;;;;0.60;0.60;;;9.10;99.90;;;;;;4956643;28;20056;-81
2022/11/17 02:58:15;;;;;;;0.60;0.60;;;9.00;99.90;;;;;;4948401;28;20407;-80
2022/11/17 03:01:22;;;;;;;0.60;0.60;;;9.00;99.90;;;;;;4983052;28;20098;-83
2022/11/17 03:04:00;;;;;;;0.52;0.52;;;9.10;99.90;;;;;;4971326;28;20703;-81
2022/11/17 03:06:56;;;;;;;0.60;0.60;;;9.10;99.90;;;;;;4980407;28;20051;-81
2022/11/17 03:09:41;;;;;;;0.50;0.50;;;9.00;99.90;;;;;;4977187;28;20788;-82
2022/11/17 03:12:30;;;;;;;0.52;0.52;;;9.00;99.90;;;;;;4959438;28;20048;-79
2022/11/17 03:15:03;;;;;;;0.60;0.60;;;9.00;99.90;;;;;;4942375;28;20127;-79
2022/11/17 03:17:51;;;;;;;0.60;0.60;;;9.00;99.90;;;;;;4974187;28;20143;-83
2022/11/17 03:20:43;;;;;;;0.60;0.60;;;8.90;99.90;;;;;;4956809;28;20106;-80
2022/11/17 03:23:09;;;;;;;0.60;0.60;;;9.10;99.90;;;;;;4954739;28;20456;-80
2022/11/17 03:25:37;;;;;;;0.60;0.60;;;9.00;99.90;;;;;;4945641;28;20559;-81
2022/11/17 03:28:06;;;;;;;1.52;1.48;;;8.90;99.90;;;;;;4968307;28;20877;-78
2022/11/17 03:30:36;;;;;;;0.60;0.60;;;8.80;99.90;;;;;;4965216;28;20139;-81
2022/11/17 03:33:08;;;;;;;0.60;0.60;;;8.90;99.90;;;;;;4981636;28;20048;-78
2022/11/17 03:35:38;;;;;;;0.60;0.60;;;8.90;99.90;;;;;;4960014;28;20055;-80
2022/11/17 03:38:09;;;;;;;0.60;0.60;;;8.80;99.90;;;;;;4987302;28;20095;-79
2022/11/17 03:40:40;;;;;;;0.60;0.60;;;8.90;99.90;;;;;;4981052;28;20112;-78
2022/11/17 03:43:08;;;;;;;0.90;0.90;;;8.90;99.90;;;;;;4981525;28;20052;-84
2022/11/17 03:45:38;;;;;;;0.70;0.70;;;8.80;99.90;;;;;;4983064;28;20053;-79
2022/11/17 03:48:27;;;;;;;0.60;0.60;;;8.90;99.90;;;;;;4987270;28;20208;-82
2022/11/17 03:51:08;;;;;;;0.60;0.60;;;8.90;99.90;;;;;;4977022;28;20056;-80
2022/11/17 03:53:35;;;;;;;0.60;0.60;;;8.80;99.90;;;;;;4978466;28;20532;-80
2022/11/17 03:56:18;;;;;;;0.60;0.60;;;8.80;99.90;;;;;;4979791;28;20052;-80
2022/11/17 03:59:04;;;;;;;0.60;0.60;;;8.90;99.90;;;;;;4960204;28;20043;-80
2022/11/17 04:01:32;;;;;;;0.60;0.60;;;8.90;99.90;;;;;;4985246;28;20080;-78
2022/11/17 04:03:58;;;;;;;0.60;0.60;;;8.90;99.90;;;;;;4983413;28;20076;-81
2022/11/17 04:06:24;;;;;;;0.60;0.60;;;8.90;99.90;;;;;;4957456;28;20057;-79
2022/11/17 04:08:50;;;;;;;0.60;0.60;;;8.80;99.90;;;;;;4957055;28;20036;-80
2022/11/17 04:16:45;;;;;;;0.60;0.60;;;8.70;99.90;;;;;;4960973;28;20101;-84
2022/11/17 04:19:11;;;;;;;0.60;0.60;;;8.70;99.90;;;;;;4964979;28;20475;-80
2022/11/17 04:21:37;;;;;;;0.60;0.60;;;8.80;99.90;;;;;;4968162;28;20037;-79
2022/11/17 04:24:02;;;;;;;0.68;0.68;;;8.70;99.90;;;;;;4963500;28;20151;-80
2022/11/17 04:29:12;;;;;;;0.60;0.60;;;8.80;99.90;;;;;;4967323;28;20856;-79
2022/11/17 04:31:38;;;;;;;0.60;0.60;;;8.70;99.90;;;;;;4981089;28;20044;-79
2022/11/17 04:34:05;;;;;;;0.60;0.60;;;8.70;99.90;;;;;;4964945;28;20586;-80
2022/11/17 04:36:35;;;;;;;0.60;0.60;;;8.70;99.90;;;;;;4946252;28;20627;-83
2022/11/17 04:39:01;;;;;;;0.60;0.60;;;8.80;99.90;;;;;;4984713;28;20517;-82
2022/11/17 04:44:14;;;;;;;0.60;0.60;;;8.60;99.90;;;;;;4990869;28;20549;-83
2022/11/17 04:46:40;;;;;;;0.60;0.60;;;8.70;99.90;;;;;;4988358;28;20040;-84
2022/11/17 04:49:07;;;;;;;0.60;0.60;;;8.60;99.90;;;;;;4962794;28;20397;-83
2022/11/17 04:51:34;;;;;;;0.60;0.60;;;8.70;99.90;;;;;;4981380;28;20044;-83
2022/11/17 04:54:01;;;;;;;0.60;0.60;;;8.70;99.90;;;;;;4966062;28;20902;-79
2022/11/17 04:56:28;;;;;;;0.60;0.60;;;8.70;99.90;;;;;;4965199;28;20040;-80
2022/11/17 04:58:54;;;;;;;0.60;0.60;;;8.60;99.90;;;;;;4962293;28;20056;-81
2022/11/17 05:01:21;;;;;;;0.60;0.60;;;8.60;99.90;;;;;;4943628;28;20185;-84
2022/11/17 05:03:52;;;;;;;0.60;0.60;;;8.70;99.90;;;;;;4963097;28;20384;-82
2022/11/17 05:06:32;;;;;;;1.10;0.60;;;8.60;99.90;;;;;;4949469;28;20582;-80
2022/11/17 05:09:00;;;;;;;0.60;0.60;;;8.60;99.90;;;;;;4963383;28;20049;-83
2022/11/17 05:14:15;;;;;;;0.60;0.60;;;8.50;99.90;;;;;;4966254;28;20051;-82
2022/11/17 05:19:28;;;;;;;0.60;0.60;;;8.30;99.90;;;;;;4966101;28;20498;-80
2022/11/17 05:21:54;;;;;;;0.60;0.60;;;8.10;99.90;;;;;;4967770;28;20063;-83
2022/11/17 05:24:20;;;;;;;0.60;0.60;;;8.10;99.90;;;;;;4949703;28;20060;-79
2022/11/17 05:26:47;;;;;;;0.60;0.60;;;8.10;99.90;;;;;;4963672;28;20044;-79
2022/11/17 05:29:15;;;;;;;0.60;0.60;;;8.10;99.90;;;;;;4983748;28;20474;-84
2022/11/17 05:31:41;;;;;;;0.60;0.60;;;8.10;99.90;;;;;;4958232;28;20073;-83
2022/11/17 05:34:09;;;;;;;0.60;0.60;;;8.10;99.90;;;;;;4963903;28;20251;-80
2022/11/17 05:36:35;;;;;;;0.60;0.60;;;8.10;99.90;;;;;;4984251;28;20080;-82
2022/11/17 05:39:04;;;;;;;0.60;0.60;;;8.00;99.90;;;;;;4968623;28;20055;-83
2022/11/17 05:41:31;;;;;;;0.60;0.60;;;8.10;99.90;;;;;;4960846;28;20059;-82
2022/11/17 05:43:57;;;;;;;0.60;0.60;;;8.10;99.90;;;;;;4961929;28;20594;-80
2022/11/17 05:46:24;;;;;;;0.60;0.60;;;8.00;99.90;;;;;;4965625;28;20421;-82
2022/11/17 05:48:51;;;;;;;0.60;0.60;;;8.10;99.90;;;;;;4985585;28;20041;-81
2022/11/17 05:51:22;;;;;;;0.60;0.60;;;8.10;99.90;;;;;;4980447;28;20141;-80
2022/11/17 05:53:48;;;;;;;0.80;0.80;;;8.00;99.90;;;;;;4973562;28;20044;-82
2022/11/17 05:56:24;;;;;;;0.60;0.60;;;8.00;99.90;;;;;;4960973;28;20059;-79
2022/11/17 05:58:53;;;;;;;0.57;0.57;;;8.10;99.90;;;;;;4962791;28;20185;-81
2022/11/17 06:01:21;;;;;;;0.60;0.60;;;8.00;99.90;;;;;;4966082;28;20049;-82
2022/11/17 06:03:52;;;;;;;0.60;0.60;;;8.10;99.90;;;;;;4979010;28;20331;-81
2022/11/17 06:06:19;;;;;;;0.60;0.60;;;8.20;99.90;;;;;;4958695;28;20110;-83
2022/11/17 06:08:45;;;;;;;0.60;0.60;;;8.20;99.90;;;;;;4970508;28;20451;-79
2022/11/17 06:11:11;;;;;;;0.60;0.60;;;8.00;99.90;;;;;;4960717;28;20244;-82
2022/11/17 06:13:37;;;;;;;0.60;0.60;;;8.10;99.90;;;;;;4981474;28;20473;-87
2022/11/17 06:16:06;;;;;;;0.60;0.60;;;8.20;99.90;;;;;;4963620;28;20426;-79
2022/11/17 06:18:40;;;;;;;0.60;0.60;;;8.20;99.90;;;;;;4963142;28;20048;-81
2022/11/17 06:21:07;;;;;;;;;;;8.10;99.90;;;;;;4980392;28;20067;-82
2022/11/17 06:23:34;;;;;;;0.60;0.60;;;8.20;99.90;;;;;;4978745;28;20015;-80
2022/11/17 06:26:04;;;;;;;0.60;0.60;;;8.20;99.90;;;;;;4979201;28;20048;-86
2022/11/17 06:28:32;;;;;;;0.57;0.57;;;8.20;99.90;;;;;;4972316;28;20084;-84
2022/11/17 06:30:58;;;;;;;1.35;1.33;;;8.10;99.90;;;;;;4964052;28;20588;-84
2022/11/17 06:33:27;;;;;;;0.60;0.60;;;8.10;99.90;;;;;;4968273;28;20056;-85
2022/11/17 06:35:52;;;;;;;0.60;0.60;;;8.10;99.90;;;;;;4956469;28;20151;-81
2022/11/17 06:38:18;;;;;;;0.60;0.60;;;8.00;99.90;;;;;;4964466;28;20839;-79
2022/11/17 06:40:44;;;;;;;0.60;0.60;;;8.10;99.90;;;;;;4983322;28;20052;-81
2022/11/17 06:43:10;;;;;;;0.60;0.60;;;8.10;99.90;;;;;;4983869;28;20499;-85
2022/11/17 06:45:38;;;;;;;0.60;0.60;;;8.10;99.90;;;;;;4974456;28;20435;-82
2022/11/17 06:48:05;;;;;;;0.60;0.60;;;8.10;99.90;;;;;;4961552;28;20055;-80
2022/11/17 06:50:32;;;;;;;0.60;0.60;;;8.00;99.90;;;;;;4963899;28;20144;-81
2022/11/17 06:52:58;;;;;;;0.60;0.60;;;8.00;99.90;;;;;;4944163;28;20056;-80
2022/11/17 06:55:25;;;;;;;0.60;0.60;;;8.10;99.90;;;;;;4963826;28;20069;-82
2022/11/17 06:57:51;;;;;;;0.60;0.60;;;8.00;99.90;;;;;;4962077;28;20493;-82
2022/11/17 07:00:18;;;;;;;0.60;0.60;;;7.90;99.90;;;;;;4957865;28;20097;-81
2022/11/17 07:02:44;;;;;;;0.60;0.60;;;8.00;99.90;;;;;;4982831;28;20045;-82
2022/11/17 07:05:09;;;;;;;0.90;0.90;;;8.10;99.90;;;;;;4981791;28;20076;-81
2022/11/17 07:07:35;;;;;;;0.60;0.60;;;8.00;99.90;;;;;;4963612;28;20055;-79
2022/11/17 07:10:01;;;;;;;0.60;0.60;;;8.00;99.90;;;;;;4979147;28;20052;-84
2022/11/17 07:12:26;;;;;;;0.60;0.60;;;8.10;99.90;;;;;;4969775;28;20051;-84
2022/11/17 07:14:52;;;;;;;0.70;0.70;;;8.10;99.90;;;;;;4955392;28;20691;-86
2022/11/17 07:17:18;;;;;;;0.60;0.60;;;8.10;99.90;;;;;;4987204;28;20040;-83
2022/11/17 07:19:44;;;;;;;0.60;0.60;;;8.10;99.90;;;;;;4942440;28;20052;-82
2022/11/17 07:22:09;;;;;;;0.60;0.60;;;8.00;99.90;;;;;;4991087;28;20104;-81
2022/11/17 07:24:35;;;;;;;0.60;0.60;;;8.00;99.90;;;;;;4993754;28;20048;-82
2022/11/17 07:27:03;;;;;;;0.70;0.70;;;8.10;99.90;;;;;;4990987;28;20044;-87
2022/11/17 07:29:29;;;;;;;0.60;0.60;;;7.90;99.90;;;;;;4971023;28;20056;-79
2022/11/17 07:31:55;;;;;;;0.60;0.60;;;7.90;99.90;;;;;;4939009;28;20370;-83
2022/11/17 07:34:21;;;;;;;0.60;0.60;;;8.00;99.90;;;;;;4953005;28;20410;-84
2022/11/17 07:36:47;;;;;;;0.70;0.70;;;8.00;99.90;;;;;;4987743;28;20055;-80
2022/11/17 07:39:14;;;;;;;0.60;0.60;;;8.00;99.90;;;;;;4982116;28;20425;-80
2022/11/17 07:41:40;;;;;;;0.60;0.60;;;8.10;99.90;;;;;;4938491;28;20083;-82
2022/11/17 07:44:06;;;;;;;0.68;0.68;;;8.00;99.90;;;;;;4969631;28;20083;-85
2022/11/17 07:46:32;;;;;;;0.60;0.60;;;8.10;99.90;;;;;;4966728;28;20872;-82
2022/11/17 07:48:58;;;;;;;0.60;0.60;;;8.10;99.90;;;;;;4983984;28;20113;-80
2022/11/17 07:51:24;;;;;;;0.60;0.60;;;8.10;99.90;;;;;;4990984;28;20063;-85
2022/11/17 07:53:49;;;;;;;0.63;0.63;;;8.10;99.90;;;;;;4964939;28;20044;-82
2022/11/17 07:56:15;;;;;;;0.60;0.60;;;8.10;99.90;;;;;;4968469;28;20410;-84
2022/11/17 07:58:41;;;;;;;0.60;0.60;;;7.90;99.90;;;;;;4946690;28;20052;-81
2022/11/17 08:01:15;;;;;;;0.60;0.60;;;8.10;99.90;;;;;;4973572;28;20185;-91
2022/11/17 08:03:42;;;;;;;0.60;0.60;;;8.00;99.90;;;;;;4977651;28;20182;-82
2022/11/17 08:06:08;;;;;;;0.60;0.60;;;8.10;99.90;;;;;;4996973;28;20055;-85
2022/11/17 08:08:35;;;;;;;0.60;0.60;;;8.10;99.90;;;;;;4976072;28;20524;-84
2022/11/17 08:11:08;;;;;;;0.68;0.68;;;8.20;99.90;;;;;;4943882;28;20094;-81
2022/11/17 08:13:35;;;;;;;0.60;0.60;;;8.10;99.90;;;;;;4995520;28;20221;-85
2022/11/17 08:16:02;;;;;;;0.60;0.60;;;8.10;99.90;;;;;;4973281;28;20856;-86
2022/11/17 08:18:28;;;;;;;0.60;0.60;;;8.20;99.90;;;;;;4977328;28;20040;-80
2022/11/17 08:21:08;;;;;;;0.60;0.60;;;8.50;99.90;;;;;;4993964;28;20970;-81
2022/11/17 08:23:35;;;;;;;0.90;0.90;;;8.60;99.90;;;;;;4956052;28;20157;-82
2022/11/17 08:26:02;;;;;;;0.60;0.60;;;8.70;99.90;;;;;;4973429;28;20125;-82
2022/11/17 08:28:28;;;;;;;0.60;0.60;;;8.70;99.90;;;;;;4952044;28;20204;-83
2022/11/17 08:30:54;;;;;;;0.60;0.60;;;8.60;99.90;;;;;;4974101;28;20044;-83
2022/11/17 08:33:20;;;;;;;0.60;0.60;;;8.60;99.90;;;;;;4948523;28;20102;-84
2022/11/17 08:35:46;;;;;;;0.60;0.60;;;8.50;99.90;;;;;;4970897;28;20770;-79
2022/11/17 08:38:14;;;;;;;0.60;0.60;;;8.60;99.90;;;;;;4979198;28;20787;-83
2022/11/17 08:40:41;;;;;;;0.60;0.60;;;8.70;99.90;;;;;;4976341;28;20052;-82
2022/11/17 08:43:07;;;;;;;0.60;0.60;;;8.70;99.90;;;;;;4955670;28;20217;-79
2022/11/17 08:45:33;;;;;;;0.60;0.60;;;8.50;99.90;;;;;;4983106;28;20453;-83
2022/11/17 08:47:59;;;;;;;0.70;0.70;;;8.70;99.90;;;;;;4967800;28;20045;-78
2022/11/17 08:50:25;;;;;;;0.60;0.60;;;8.60;99.90;;;;;;4962899;28;20400;-84
2022/11/17 08:52:51;;;;;;;0.60;0.60;;;8.70;99.90;;;;;;4984543;28;20044;-81
2022/11/17 08:55:17;;;;;;;0.60;0.60;;;8.70;99.90;;;;;;4965541;28;20794;-85
2022/11/17 08:57:43;;;;;;;0.60;0.60;;;8.70;99.90;;;;;;4954062;28;20228;-86
2022/11/17 09:00:10;;;;;;;0.60;0.60;;;8.70;99.90;;;;;;4949792;28;20910;-80
2022/11/17 09:02:37;;;;;;;0.60;0.60;;;8.70;99.90;;;;;;4990286;28;21211;-85
2022/11/17 09:05:04;;;;;;;0.60;0.60;;;8.70;99.90;;;;;;4964490;28;20416;-83
2022/11/17 09:07:33;;;;;;;12.63;11.98;;;8.70;99.90;;;;;;4961622;28;20864;-80
2022/11/17 09:10:00;;;;;;;0.60;0.60;;;8.80;99.90;;;;;;4959293;28;20410;-82
2022/11/17 09:12:25;;;;;;;0.60;0.60;;;8.80;99.90;;;;;;4977915;28;20167;-81
2022/11/17 09:14:51;;;;;;;0.60;0.60;;;8.80;99.90;;;;;;4962419;28;20048;-84
2022/11/17 09:17:17;;;;;;;0.60;0.60;;;8.70;99.90;;;;;;4964870;28;20049;-83
2022/11/17 09:19:43;;;;;;;0.60;0.60;;;8.70;99.90;;;;;;4962247;28;20056;-80
2022/11/17 09:22:09;;;;;;;0.60;0.60;;;8.70;99.90;;;;;;4980112;28;20051;-83
2022/11/17 09:24:34;;;;;;;0.60;0.60;;;8.80;99.90;;;;;;4957396;28;20052;-86
2022/11/17 09:27:02;;;;;;;0.60;0.60;;;8.70;99.90;;;;;;4942694;28;20052;-82
2022/11/17 09:29:29;;;;;;;0.60;0.60;;;8.80;99.90;;;;;;4963105;28;20564;-85
2022/11/17 09:31:55;;;;;;;0.60;0.60;;;8.60;99.90;;;;;;4965060;28;20052;-80
2022/11/17 09:34:21;;;;;;;0.60;0.60;;;8.70;99.90;;;;;;4962905;28;20051;-80
2022/11/17 09:36:49;;;;;;;0.60;0.60;;;8.80;99.90;;;;;;4977171;28;20512;-83
2022/11/17 09:39:21;;;;;;;0.50;0.50;;;8.70;99.90;;;;;;4950795;28;20403;-90
2022/11/17 09:41:56;;;;;;;0.60;0.60;;;8.70;99.90;;;;;;4967494;28;20049;-87
2022/11/17 09:44:31;;;;;;;0.60;0.60;;;8.80;99.90;;;;;;4957208;28;20048;-84
2022/11/17 09:47:22;;;;;;;0.60;0.60;;;8.90;99.90;;;;;;4950660;28;20098;-85
2022/11/17 09:50:21;;;;;;;0.60;0.60;;;8.70;99.90;;;;;;4939319;28;20454;-88
2022/11/17 09:53:27;;;;;;;0.60;0.60;;;8.90;99.90;;;;;;4951212;28;20140;-85
2022/11/17 09:55:56;;;;;;;0.60;0.60;;;8.80;99.90;;;;;;4966766;28;20515;-85
2022/11/17 09:58:31;;;;;;;0.60;0.60;;;8.90;99.90;;;;;;4959439;28;20426;-86
2022/11/17 10:00:57;;;;;;;0.60;0.60;;;8.90;99.90;;;;;;4960459;28;20047;-85
2022/11/17 10:03:34;;;;;;;0.60;0.60;;;9.10;99.90;;;;;;4961186;28;20048;-82
2022/11/17 10:06:04;;;;;;;0.60;0.60;;;9.10;99.90;;;;;;4964997;28;20478;-85
2022/11/17 10:08:38;;;;;;;0.60;0.60;;;9.20;99.90;;;;;;4961882;28;20395;-86
2022/11/17 10:14:07;;;;;;;0.60;0.60;;;9.30;99.90;;;;;;4944134;28;20087;-82
2022/11/17 10:16:34;;;;;;;0.60;0.60;;;9.20;99.90;;;;;;4950307;28;20067;-87
2022/11/17 10:19:14;;;;;;;0.60;0.60;;;9.30;99.90;;;;;;4949029;28;20102;-86
2022/11/17 10:21:40;;;;;;;0.60;0.60;;;9.40;99.90;;;;;;4951739;28;20411;-88
2022/11/17 10:24:07;;;;;;;0.60;0.60;;;9.30;99.90;;;;;;4963686;28;20410;-83
2022/11/17 10:26:47;;;;;;;0.50;0.50;;;9.30;99.90;;;;;;4962994;28;20515;-86
2022/11/17 10:29:20;;;;;;;0.60;0.60;;;9.30;99.90;;;;;;4982799;28;20060;-86
2022/11/17 10:31:46;;;;;;;0.60;0.60;;;9.20;99.90;;;;;;4987690;28;20083;-87
2022/11/17 10:34:36;;;;;;;0.60;0.60;;;9.30;99.90;;;;;;4952558;28;20167;-83
2022/11/17 10:37:12;;;;;;;0.60;0.60;;;9.20;99.90;;;;;;4978428;28;20041;-88
2022/11/17 10:39:40;;;;;;;0.60;0.60;;;9.20;99.90;;;;;;4974178;28;20151;-87
2022/11/17 10:42:17;;;;;;;0.60;0.60;;;9.10;99.90;;;;;;4953626;28;20063;-86
2022/11/17 10:44:50;;;;;;;0.60;0.60;;;9.30;99.90;;;;;;4968005;28;20044;-88
2022/11/17 10:47:45;;;;;;;0.60;0.60;;;9.20;99.90;;;;;;4973195;28;20044;-91
2022/11/17 10:50:20;;;;;;;0.60;0.60;;;9.20;99.90;;;;;;4857212;28;20058;-90
2022/11/17 10:52:47;;;;;;;0.60;0.60;;;9.20;99.90;;;;;;4963413;28;20067;-87
2022/11/17 10:55:23;;;;;;;0.60;0.60;;;9.20;99.90;;;;;;4968274;28;20057;-85
2022/11/17 10:58:18;;;;;;;0.60;0.60;;;9.30;99.90;;;;;;4967701;28;20452;-84
2022/11/17 11:00:55;;;;;;;0.50;0.50;;;9.30;99.90;;;;;;4961671;28;20067;-83
2022/11/17 11:03:33;;;;;;;0.60;0.60;;;9.30;99.90;;;;;;4978654;28;20105;-87
2022/11/17 11:06:21;;;;;;;0.60;0.60;;;9.40;99.90;;;;;;4979625;28;20127;-86
2022/11/17 11:09:19;;;;;;;0.60;0.60;;;9.40;99.90;;;;;;4971109;28;20411;-84
2022/11/17 11:11:48;;;;;;;0.60;0.60;;;9.40;99.90;;;;;;4987610;28;20040;-84
2022/11/17 11:14:35;;;;;;;0.60;0.60;;;9.50;99.90;;;;;;4964013;28;20479;-81
2022/11/17 11:17:16;;;;;;;0.60;0.60;;;9.60;99.90;;;;;;4987222;28;20041;-87
2022/11/17 11:19:50;;;;;;;0.60;0.60;;;9.70;99.90;;;;;;4964852;28;20044;-84
2022/11/17 11:22:46;;;;;;;0.60;0.60;;;9.70;99.90;;;;;;4939309;28;20048;-86
2022/11/17 11:25:40;;;;;;;0.60;0.60;;;9.60;99.90;;;;;;4960180;28;20057;-88
2022/11/17 11:28:18;;;;;;;;;;;9.70;99.90;;;;;;4960159;28;20191;-87
2022/11/17 11:31:03;;;;;;;0.60;0.60;;;9.80;99.90;;;;;;4976743;28;19928;-85
2022/11/17 11:33:46;;;;;;;0.50;0.50;;;9.80;99.90;;;;;;4964487;28;20918;-88
2022/11/17 11:36:24;;;;;;;0.53;0.53;;;9.80;99.90;;;;;;4979994;28;20186;-88
2022/11/17 11:39:21;;;;;;;0.50;0.50;;;10.00;99.90;;;;;;4954294;28;21157;-89
2022/11/17 11:42:31;;;;;;;0.60;0.60;;;9.90;99.90;;;;;;4959567;28;20126;-86
2022/11/17 11:45:19;;;;;;;0.60;0.60;;;10.00;99.90;;;;;;4936747;28;20056;-91
2022/11/17 11:48:31;;;;;;;0.50;0.50;;;10.00;99.90;;;;;;4983003;28;20044;-86
2022/11/17 11:51:23;;;;;;;0.60;0.60;;;10.10;99.90;;;;;;4886237;28;20058;-86
2022/11/17 11:54:07;;;;;;;0.50;0.50;;;10.10;99.90;;;;;;4981495;28;20127;-90
2022/11/17 11:56:40;;;;;;;0.60;0.60;;;10.30;99.90;;;;;;4994216;28;20640;-91
2022/11/17 11:59:37;;;;;;;0.60;0.60;;;10.30;99.90;;;;;;4978811;28;20381;-93
2022/11/17 12:02:24;;;;;;;0.60;0.60;;;10.40;99.90;;;;;;4949166;28;20295;-86
2022/11/17 12:05:06;;;;;;;0.60;0.60;;;10.50;99.90;;;;;;4952833;28;20505;-86
2022/11/17 12:08:01;;;;;;;0.60;0.60;;;10.70;99.90;;;;;;4971387;28;20110;-90
2022/11/17 12:10:36;;;;;;;0.60;0.60;;;10.80;99.90;;;;;;4940323;28;20044;-88
2022/11/17 12:13:11;;;;;;;0.60;0.60;;;10.90;99.90;;;;;;4963537;28;20536;-92
2022/11/17 12:15:37;;;;;;;0.55;0.55;;;11.00;99.90;;;;;;4980318;28;20426;-87
2022/11/17 12:18:17;;;;;;;0.60;0.60;;;11.10;99.90;;;;;;4966970;28;20037;-85
2022/11/17 12:20:54;;;;;;;0.50;0.50;;;11.10;99.90;;;;;;4968194;28;20097;-87
2022/11/17 12:23:48;;;;;;;0.60;0.60;;;11.10;99.90;;;;;;4948501;28;20139;-91
2022/11/17 12:26:29;;;;;;;0.60;0.60;;;11.20;99.90;;;;;;4957202;28;20050;-88
2022/11/17 12:29:25;;;;;;;0.50;0.50;;;11.20;99.90;;;;;;4980076;28;20102;-87
2022/11/17 12:31:56;;;;;;;0.50;0.50;;;11.20;99.90;;;;;;4970039;28;20054;-85
2022/11/17 12:34:21;;;;;;;0.60;0.60;;;11.30;99.90;;;;;;4941028;28;20407;-89
2022/11/17 12:37:25;;;;;;;0.50;0.50;;;11.40;99.90;;;;;;4959824;28;20033;-86
2022/11/17 12:40:27;;;;;;;0.50;0.50;;;11.40;99.90;;;;;;4969242;28;20048;-85
2022/11/17 12:43:26;;;;;;;0.50;0.50;;;11.40;99.90;;;;;;4964248;28;20052;-89
2022/11/17 12:45:52;;;;;;;0.50;0.50;;;11.30;99.90;;;;;;4902362;28;20048;-88
2022/11/17 12:48:25;;;;;;;0.60;0.60;;;11.30;99.90;;;;;;4963231;28;20090;-86
2022/11/17 12:51:21;;;;;;;0.57;0.57;;;11.40;99.90;;;;;;4975617;28;20399;-87
2022/11/17 12:54:15;;;;;;;0.50;0.50;;;11.40;99.90;;;;;;4967221;28;20473;-89
2022/11/17 12:57:22;;;;;;;0.50;0.50;;;11.40;99.90;;;;;;4931205;28;1221646;-87
2022/11/17 13:00:07;;;;;;;0.60;0.60;;;11.30;99.90;;;;;;4953434;28;20045;-89
2022/11/17 13:02:46;;;;;;;0.57;0.57;;;11.40;99.90;;;;;;4974071;28;20892;-86
2022/11/17 13:05:19;;;;;;;0.50;0.50;;;11.40;99.90;;;;;;4958448;28;20211;-84
2022/11/17 13:07:48;;;;;;;0.60;0.60;;;11.40;99.90;;;;;;4972320;28;20051;-91
2022/11/17 13:10:31;;;;;;;0.60;0.60;;;11.30;99.90;;;;;;4934052;28;20245;-83
2022/11/17 13:13:12;;;;;;;0.50;0.50;;;11.30;99.90;;;;;;4949539;28;20048;-85
2022/11/17 13:15:40;;;;;;;0.50;0.50;;;11.40;99.90;;;;;;4974150;28;20681;-84
2022/11/17 13:18:25;;;;;;;0.55;0.55;;;11.30;99.90;;;;;;4966696;28;20156;-83
2022/11/17 13:20:50;;;;;;;0.60;0.60;;;11.30;99.90;;;;;;4965862;28;20624;-83
2022/11/17 13:23:22;;;;;;;0.50;0.50;;;11.30;99.90;;;;;;4930303;28;20818;-86
2022/11/17 13:25:49;;;;;;;0.75;0.75;;;11.30;99.90;;;;;;4953366;28;20163;-88
2022/11/17 13:28:30;;;;;;;0.60;0.60;;;11.30;99.90;;;;;;4953228;28;20132;-86
2022/11/17 13:30:57;;;;;;;0.50;0.50;;;11.30;99.90;;;;;;4977780;28;20048;-84
2022/11/17 13:33:24;;;;;;;0.50;0.50;;;11.30;99.90;;;;;;4982137;28;20047;-90
2022/11/17 13:36:30;;;;;;;0.50;0.50;;;11.30;99.90;;;;;;4940821;28;20052;-87
2022/11/17 13:38:59;;;;;;;0.60;0.60;;;11.30;99.90;;;;;;4962556;28;20060;-84
2022/11/17 13:41:26;;;;;;;0.50;0.50;;;11.40;99.90;;;;;;4951953;28;20106;-82
2022/11/17 13:43:53;;;;;;;0.50;0.50;;;11.30;99.90;;;;;;4963873;28;20922;-87
2022/11/17 13:46:20;;;;;;;0.50;0.50;;;11.30;99.90;;;;;;4975519;28;20946;-84
2022/11/17 13:48:48;;;;;;;0.50;0.50;;;11.30;99.90;;;;;;4959904;28;20133;-85
2022/11/17 13:51:29;;;;;;;0.50;0.50;;;11.30;99.90;;;;;;4948194;28;20423;-90
2022/11/17 13:54:03;;;;;;;0.52;0.52;;;11.30;99.90;;;;;;4985539;28;20155;-87
2022/11/17 13:56:48;;;;;;;0.50;0.50;;;11.30;99.90;;;;;;4967458;28;20149;-87
2022/11/17 13:59:17;;;;;;;0.50;0.50;;;11.30;99.90;;;;;;4953512;28;20051;-85
2022/11/17 14:01:43;;;;;;;0.60;0.60;;;11.30;99.90;;;;;;4956491;28;20517;-91